Amor, Minnesota
Current Conditions -  °F | °C
As of 2:54 PM on Saturday 20 Dec 2014 (Local Time) from KFFM Reporting Station
Haze Haze  
Wind Chill: 20°   Ceiling: 600
Heat Index: 30°   Visibility: 4mi
Dew Point: 28°   Wind: 14mph
Humidity: 93%   Direction: 170°S
Pressure: 30.01"   Gusts: 17mph
Location:  46.3166°N, 95.7183°W
Report Text: KFFM 202054Z AUTO 17012G15KT 4SM BR OVC006 M01/M02 A3001 RMK AO2
Loading
Personal Weather Stations






























Interactive Weather Map New forecast layout! Learn more

10-Day Weather Forecast

Advertisements
Track Severe Weather on mobile